createdAt,value
2019-02-27T06:51:53.633Z,1009.13
2019-02-27T06:52:53.535Z,1009.13
2019-02-27T06:54:53.500Z,1009.01
2019-02-27T06:57:53.409Z,1008.92
2019-02-27T06:58:53.386Z,1008.95
2019-02-27T06:59:31.766Z,1009.00
2019-02-27T07:00:35.804Z,1008.96
2019-02-27T07:01:31.734Z,1008.89
2019-02-27T07:02:31.710Z,1008.96
2019-02-27T07:03:32.960Z,1008.98
2019-02-27T07:09:50.574Z,1009.17
2019-02-27T07:11:53.483Z,1009.32
2019-02-27T07:12:54.711Z,1009.29
2019-02-27T07:16:41.863Z,1009.38
2019-02-27T07:17:41.829Z,1009.39
2019-02-27T07:19:49.740Z,1009.39
2019-02-27T07:20:48.441Z,1009.37
2019-02-27T07:21:48.432Z,1009.36
2019-02-27T07:22:48.425Z,1009.35
2019-02-27T07:23:48.418Z,1009.29
2019-02-27T07:24:48.412Z,1009.26
2019-02-27T07:25:48.406Z,1009.28
2019-02-27T07:26:50.271Z,1009.27
2019-02-27T07:27:48.385Z,1009.22
2019-02-27T07:28:48.379Z,1009.20
2019-02-27T07:29:48.373Z,1009.15
2019-02-27T07:30:48.364Z,1009.12
2019-02-27T07:31:49.510Z,1009.11
2019-02-27T07:32:48.377Z,1009.04
2019-02-27T07:33:48.340Z,1009.01
2019-02-27T07:34:49.771Z,1009.03
2019-02-27T07:35:48.377Z,1008.97
2019-02-27T07:36:48.320Z,1008.94
2019-02-27T07:37:48.378Z,1008.92
2019-02-27T07:38:48.301Z,1008.93
2019-02-27T07:39:48.302Z,1008.88
2019-02-27T07:40:48.284Z,1008.82
2019-02-27T07:41:48.277Z,1008.80
2019-02-27T07:42:48.270Z,1008.80
2019-02-27T07:43:48.262Z,1008.73
2019-02-27T07:44:48.266Z,1008.85
2019-02-27T07:45:48.254Z,1008.81
2019-02-27T07:46:48.241Z,1008.77
2019-02-27T07:47:48.235Z,1008.77
2019-02-27T07:48:48.224Z,1008.80
2019-02-27T07:49:48.337Z,1008.72
2019-02-27T07:50:49.085Z,1008.69
2019-02-27T07:51:48.600Z,1008.69
2019-02-27T07:52:48.197Z,1008.71
2019-02-27T07:53:48.189Z,1008.69
2019-02-27T07:54:48.191Z,1008.61
2019-02-27T07:55:48.176Z,1008.64
2019-02-27T07:56:48.168Z,1008.64
2019-02-27T07:57:48.158Z,1008.57
2019-02-27T07:58:48.155Z,1008.65
2019-02-27T07:59:48.159Z,1008.53
2019-02-27T08:00:49.820Z,1008.55
2019-02-27T08:01:48.143Z,1008.50
2019-02-27T08:02:48.122Z,1008.54
2019-02-27T08:03:48.112Z,1008.59
2019-02-27T08:04:48.105Z,1008.57
2019-02-27T08:05:48.101Z,1008.51
2019-02-27T08:06:48.091Z,1008.52
2019-02-27T08:07:49.030Z,1008.52
2019-02-27T08:08:48.084Z,1008.51
2019-02-27T08:09:48.069Z,1008.49
2019-02-27T08:10:48.066Z,1008.52
2019-02-27T08:11:48.062Z,1008.52
2019-02-27T08:12:48.052Z,1008.55
2019-02-27T08:13:48.043Z,1008.49
2019-02-27T08:14:48.032Z,1008.47
2019-02-27T08:15:48.392Z,1008.51
2019-02-27T08:16:48.213Z,1008.50
2019-02-27T08:17:48.091Z,1008.49
2019-02-27T08:18:48.006Z,1008.51
2019-02-27T08:19:47.993Z,1008.51
2019-02-27T08:20:48.160Z,1008.57
2019-02-27T08:21:47.979Z,1008.53
2019-02-27T08:22:48.242Z,1008.57
2019-02-27T08:23:47.965Z,1008.58
2019-02-27T08:24:47.958Z,1008.58
2019-02-27T08:25:47.954Z,1008.56
2019-02-27T08:26:49.123Z,1008.44
2019-02-27T08:27:48.319Z,1008.53
2019-02-27T08:28:47.930Z,1008.47
2019-02-27T08:29:47.922Z,1008.50
2019-02-27T08:30:47.915Z,1008.52
2019-02-27T08:31:47.910Z,1008.52
2019-02-27T08:32:47.899Z,1008.45
2019-02-27T08:33:47.890Z,1008.47
2019-02-27T08:34:47.893Z,1008.49
2019-02-27T08:35:47.891Z,1008.43
2019-02-27T08:36:47.867Z,1008.48
2019-02-27T08:37:47.874Z,1008.37
2019-02-27T08:38:47.853Z,1008.45
2019-02-27T08:39:47.841Z,1008.48
2019-02-27T08:40:47.851Z,1008.38
2019-02-27T08:41:47.828Z,1008.34
2019-02-27T08:42:47.817Z,1008.45
2019-02-27T08:43:47.817Z,1008.42
2019-02-27T08:44:47.807Z,1008.33
2019-02-27T08:45:47.808Z,1008.30
2019-02-27T08:46:47.797Z,1008.29
2019-02-27T08:47:49.024Z,1008.28
2019-02-27T08:48:50.107Z,1008.20
2019-02-27T08:49:47.763Z,1008.20
2019-02-27T08:50:47.766Z,1008.14
2019-02-27T08:51:47.750Z,1008.17
2019-02-27T08:52:50.861Z,1008.20
2019-02-27T08:53:47.735Z,1008.18
2019-02-27T08:54:47.728Z,1008.17
2019-02-27T08:55:47.732Z,1008.19
2019-02-27T08:56:47.958Z,1008.14
2019-02-27T08:57:49.710Z,1008.07
2019-02-27T08:58:47.697Z,1008.02
2019-02-27T08:59:47.690Z,1008.03
2019-02-27T09:00:48.094Z,1007.99
2019-02-27T09:01:47.676Z,1008.02
2019-02-27T09:02:47.669Z,1008.06
2019-02-27T09:03:47.666Z,1008.01
2019-02-27T09:04:47.654Z,1008.01
2019-02-27T09:05:47.657Z,1008.03
2019-02-27T09:06:47.638Z,1007.99
2019-02-27T09:07:47.631Z,1007.99
2019-02-27T09:08:47.619Z,1007.96
2019-02-27T09:09:51.402Z,1007.90
2019-02-27T09:10:47.614Z,1007.90
2019-02-27T09:11:47.600Z,1007.92
2019-02-27T09:12:48.791Z,1007.95
2019-02-27T09:13:47.585Z,1007.94
2019-02-27T09:14:47.582Z,1007.93
2019-02-27T09:15:47.581Z,1007.92
2019-02-27T09:16:47.560Z,1007.93
2019-02-27T09:17:47.573Z,1007.89
2019-02-27T09:18:47.541Z,1007.88
2019-02-27T09:19:47.535Z,1007.89
2019-02-27T09:20:47.527Z,1007.85
2019-02-27T09:21:47.521Z,1007.80
2019-02-27T09:22:47.626Z,1007.79
2019-02-27T09:23:47.508Z,1007.78
2019-02-27T09:24:47.497Z,1007.77
2019-02-27T09:25:47.487Z,1007.80
2019-02-27T09:26:47.490Z,1007.70
2019-02-27T09:27:47.471Z,1007.75
2019-02-27T09:28:47.466Z,1007.70
2019-02-27T09:29:49.272Z,1007.68
2019-02-27T09:30:47.449Z,1007.65
2019-02-27T09:31:50.856Z,1007.64
2019-02-27T09:32:47.431Z,1007.61
2019-02-27T09:33:47.425Z,1007.67
2019-02-27T09:34:47.415Z,1007.59
2019-02-27T09:35:47.406Z,1007.61
2019-02-27T09:36:49.121Z,1007.67
2019-02-27T09:37:48.320Z,1007.69
2019-02-27T09:38:47.388Z,1007.64
2019-02-27T09:39:47.373Z,1007.57
2019-02-27T09:40:47.366Z,1007.49
2019-02-27T09:41:47.368Z,1007.56
2019-02-27T09:42:50.180Z,1007.53
2019-02-27T09:43:48.343Z,1007.46
2019-02-27T09:44:47.334Z,1007.47
2019-02-27T09:45:47.330Z,1007.50
2019-02-27T09:46:49.926Z,1007.50
2019-02-27T09:47:47.321Z,1007.47
2019-02-27T09:48:47.299Z,1007.46
2019-02-27T09:49:47.294Z,1007.47
2019-02-27T09:50:48.362Z,1007.44
2019-02-27T09:51:47.285Z,1007.48
2019-02-27T09:52:47.272Z,1007.46
2019-02-27T09:53:47.262Z,1007.41
2019-02-27T09:54:47.610Z,1007.45
2019-02-27T09:55:47.244Z,1007.45
2019-02-27T09:56:47.248Z,1007.44
2019-02-27T09:57:47.230Z,1007.46
2019-02-27T09:58:47.221Z,1007.51
2019-02-27T09:59:47.218Z,1007.46
2019-02-27T10:00:47.211Z,1007.50
2019-02-27T10:01:47.199Z,1007.43
2019-02-27T10:02:47.206Z,1007.54
2019-02-27T10:03:47.184Z,1007.44
2019-02-27T10:04:47.179Z,1007.54
2019-02-27T10:05:47.835Z,1007.50
2019-02-27T10:06:47.163Z,1007.47
2019-02-27T10:07:50.959Z,1007.47
2019-02-27T10:08:47.144Z,1007.43
2019-02-27T10:09:48.103Z,1007.47
2019-02-27T10:10:47.129Z,1007.43
2019-02-27T10:11:47.122Z,1007.42
2019-02-27T10:12:47.123Z,1007.40
2019-02-27T10:13:47.110Z,1007.46
2019-02-27T10:14:47.955Z,1007.43
2019-02-27T10:15:47.097Z,1007.38
2019-02-27T10:16:47.086Z,1007.44
2019-02-27T10:17:47.087Z,1007.38
2019-02-27T10:18:47.069Z,1007.38
2019-02-27T10:19:47.065Z,1007.32
2019-02-27T10:20:47.052Z,1007.33
2019-02-27T10:21:47.631Z,1007.24
2019-02-27T10:22:47.049Z,1007.30
2019-02-27T10:23:47.031Z,1007.24
2019-02-27T10:24:47.023Z,1007.26
2019-02-27T10:25:47.018Z,1007.29
2019-02-27T10:26:47.054Z,1007.24
2019-02-27T10:27:47.397Z,1007.23
2019-02-27T10:28:46.993Z,1007.18
2019-02-27T10:29:47.904Z,1007.18
2019-02-27T10:30:50.111Z,1007.16
2019-02-27T10:31:46.975Z,1007.12
2019-02-27T10:32:46.974Z,1007.16
2019-02-27T10:33:46.954Z,1007.11
2019-02-27T10:34:46.947Z,1007.11
2019-02-27T10:35:46.942Z,1007.08
2019-02-27T10:36:47.703Z,1007.04
2019-02-27T10:37:50.410Z,1007.09
2019-02-27T10:38:46.930Z,1007.07
2019-02-27T10:39:46.914Z,1007.05
2019-02-27T10:40:46.900Z,1007.03
2019-02-27T10:41:49.903Z,1007.05
2019-02-27T10:42:46.884Z,1006.96
2019-02-27T10:43:46.882Z,1006.96
2019-02-27T10:44:46.870Z,1006.89
2019-02-27T10:45:49.307Z,1006.87
2019-02-27T10:46:46.856Z,1006.90
2019-02-27T10:47:46.848Z,1006.84
2019-02-27T10:48:47.532Z,1006.85
2019-02-27T10:49:46.835Z,1006.83
2019-02-27T10:50:46.872Z,1006.76
2019-02-27T10:51:46.820Z,1006.81
2019-02-27T10:52:46.817Z,1006.78
2019-02-27T10:53:46.807Z,1006.69
2019-02-27T10:54:46.797Z,1006.64
2019-02-27T10:55:49.265Z,1006.68
2019-02-27T10:56:46.782Z,1006.59
2019-02-27T10:57:46.773Z,1006.65
2019-02-27T10:58:47.541Z,1006.61
2019-02-27T10:59:46.757Z,1006.51
2019-02-27T11:00:46.752Z,1006.52
2019-02-27T11:01:46.741Z,1006.50
2019-02-27T11:02:47.895Z,1006.40
2019-02-27T11:03:46.735Z,1006.45
2019-02-27T11:04:46.731Z,1006.46
2019-02-27T11:05:46.712Z,1006.40
2019-02-27T11:06:46.705Z,1006.44
2019-02-27T11:07:46.701Z,1006.38
2019-02-27T11:08:46.701Z,1006.42
2019-02-27T11:09:46.681Z,1006.45
2019-02-27T11:10:46.675Z,1006.41
2019-02-27T11:11:48.638Z,1006.43
2019-02-27T11:12:46.658Z,1006.40
2019-02-27T11:13:48.422Z,1006.40
2019-02-27T11:14:46.642Z,1006.41
2019-02-27T11:15:46.635Z,1006.36
2019-02-27T11:16:46.631Z,1006.35
2019-02-27T11:17:46.623Z,1006.33
2019-02-27T11:18:46.635Z,1006.41
2019-02-27T11:19:46.604Z,1006.39
2019-02-27T11:20:46.597Z,1006.36
2019-02-27T11:21:46.590Z,1006.34
2019-02-27T11:22:46.581Z,1006.29
2019-02-27T11:23:46.576Z,1006.36
2019-02-27T11:24:49.270Z,1006.26
2019-02-27T11:25:46.558Z,1006.34
2019-02-27T11:26:46.552Z,1006.27
2019-02-27T11:27:46.562Z,1006.26
2019-02-27T11:28:47.711Z,1006.26
2019-02-27T11:29:46.531Z,1006.27
2019-02-27T11:30:46.527Z,1006.16
2019-02-27T11:31:46.517Z,1006.23
2019-02-27T11:32:46.505Z,1006.12
2019-02-27T11:33:46.499Z,1006.05
2019-02-27T11:34:48.439Z,1006.10
2019-02-27T11:35:46.489Z,1006.04
2019-02-27T11:36:46.476Z,1005.98
2019-02-27T11:37:47.458Z,1005.94
2019-02-27T11:38:46.459Z,1005.95
2019-02-27T11:39:46.455Z,1005.97
2019-02-27T11:40:46.449Z,1005.94
2019-02-27T11:41:48.458Z,1006.01
2019-02-27T11:42:46.426Z,1005.92
2019-02-27T11:43:46.424Z,1005.87
2019-02-27T11:44:49.406Z,1005.93
2019-02-27T11:45:46.408Z,1005.87
2019-02-27T11:46:46.397Z,1005.90
2019-02-27T11:47:48.062Z,1005.90
2019-02-27T11:48:46.381Z,1005.88
2019-02-27T11:49:46.376Z,1005.85
2019-02-27T11:50:46.368Z,1005.88
2019-02-27T11:51:46.363Z,1005.85
2019-02-27T11:52:49.073Z,1005.77
2019-02-27T11:53:46.347Z,1005.86
2019-02-27T11:54:46.357Z,1005.79
2019-02-27T11:55:47.047Z,1005.76
2019-02-27T11:56:46.321Z,1005.75
2019-02-27T11:57:46.313Z,1005.73
2019-02-27T11:58:46.302Z,1005.77
2019-02-27T11:59:46.990Z,1005.73
2019-02-27T12:00:46.293Z,1005.77
2019-02-27T12:01:46.283Z,1005.70
2019-02-27T12:02:46.274Z,1005.71
2019-02-27T12:03:46.560Z,1005.68
2019-02-27T12:04:46.260Z,1005.65
2019-02-27T12:05:46.251Z,1005.67
2019-02-27T12:06:46.240Z,1005.71
2019-02-27T12:07:50.693Z,1005.68
2019-02-27T12:08:46.226Z,1005.61
2019-02-27T12:09:46.220Z,1005.59
2019-02-27T12:10:46.215Z,1005.64
2019-02-27T12:11:48.694Z,1005.57
2019-02-27T12:12:46.195Z,1005.59
2019-02-27T12:13:46.191Z,1005.57
2019-02-27T12:14:46.181Z,1005.56
2019-02-27T12:15:46.173Z,1005.51
2019-02-27T12:16:48.626Z,1005.45
2019-02-27T12:17:47.158Z,1005.43
2019-02-27T12:18:46.148Z,1005.38
2019-02-27T12:19:46.141Z,1005.38
2019-02-27T12:20:46.136Z,1005.36
2019-02-27T12:21:46.131Z,1005.33
2019-02-27T12:22:46.118Z,1005.38
2019-02-27T12:23:46.110Z,1005.30
2019-02-27T12:24:46.103Z,1005.30
2019-02-27T12:25:46.095Z,1005.29
2019-02-27T12:26:46.089Z,1005.26
2019-02-27T12:27:49.650Z,1005.21
2019-02-27T12:28:47.495Z,1005.20
2019-02-27T12:29:46.064Z,1005.22
2019-02-27T12:30:46.063Z,1005.18
2019-02-27T12:31:48.217Z,1005.13
2019-02-27T12:32:46.040Z,1005.09
2019-02-27T12:33:46.051Z,1005.05
2019-02-27T12:34:46.030Z,1005.06
2019-02-27T12:35:46.034Z,1005.00
2019-02-27T12:36:46.015Z,1005.03
2019-02-27T12:37:46.007Z,1004.91
2019-02-27T12:38:45.991Z,1004.91
2019-02-27T12:39:47.283Z,1004.91
2019-02-27T12:40:45.982Z,1004.88
2019-02-27T12:41:45.972Z,1004.84
2019-02-27T12:42:45.984Z,1004.85
2019-02-27T12:43:45.955Z,1004.83
2019-02-27T12:44:45.945Z,1004.93
2019-02-27T12:45:45.940Z,1004.83
2019-02-27T12:46:45.934Z,1004.79
2019-02-27T12:47:45.921Z,1004.81
2019-02-27T12:48:46.405Z,1004.83
2019-02-27T12:49:45.906Z,1004.77
2019-02-27T12:50:45.897Z,1004.79
2019-02-27T12:51:45.901Z,1004.72
2019-02-27T12:52:47.924Z,1004.73
2019-02-27T12:53:45.873Z,1004.70
2019-02-27T12:54:45.864Z,1004.67
2019-02-27T12:55:45.857Z,1004.60
2019-02-27T12:56:45.850Z,1004.68
2019-02-27T12:57:45.854Z,1004.58
2019-02-27T12:58:45.831Z,1004.54
2019-02-27T12:59:45.827Z,1004.53
2019-02-27T13:00:45.816Z,1004.51
2019-02-27T13:01:50.935Z,1004.50
2019-02-27T13:02:46.802Z,1004.47
2019-02-27T13:03:45.793Z,1004.48
2019-02-27T13:04:45.782Z,1004.41
2019-02-27T13:05:45.776Z,1004.46
2019-02-27T13:06:45.773Z,1004.40
2019-02-27T13:07:45.759Z,1004.38
2019-02-27T13:08:45.751Z,1004.38
2019-02-27T13:09:45.744Z,1004.36
2019-02-27T13:10:45.751Z,1004.41
2019-02-27T13:11:45.730Z,1004.30
2019-02-27T13:12:45.721Z,1004.31
2019-02-27T13:13:45.718Z,1004.36
2019-02-27T13:14:45.705Z,1004.33
2019-02-27T13:15:45.698Z,1004.33
2019-02-27T13:16:46.393Z,1004.30
2019-02-27T13:17:45.685Z,1004.30
2019-02-27T13:18:46.522Z,1004.18
2019-02-27T13:19:45.666Z,1004.21
2019-02-27T13:20:46.291Z,1004.11
2019-02-27T13:21:45.671Z,1004.17
2019-02-27T13:22:45.648Z,1004.13
2019-02-27T13:23:45.643Z,1004.11
2019-02-27T13:24:47.049Z,1004.11
2019-02-27T13:25:45.624Z,1004.11
2019-02-27T13:26:45.612Z,1004.10
2019-02-27T13:27:45.607Z,1004.07
2019-02-27T13:28:45.984Z,1004.03
2019-02-27T13:29:45.588Z,1004.04
2019-02-27T13:30:45.580Z,1004.06
2019-02-27T13:31:45.576Z,1004.00
2019-02-27T13:32:45.572Z,1003.94
2019-02-27T13:33:45.559Z,1004.00
2019-02-27T13:34:48.263Z,1004.01
2019-02-27T13:35:45.544Z,1003.98
2019-02-27T13:36:45.539Z,1004.01
2019-02-27T13:37:45.538Z,1003.91
2019-02-27T13:38:45.520Z,1003.90
2019-02-27T13:39:45.512Z,1003.95
2019-02-27T13:40:45.503Z,1003.94
2019-02-27T13:41:45.797Z,1003.94
2019-02-27T13:42:45.488Z,1003.85
2019-02-27T13:43:45.480Z,1003.90
2019-02-27T13:44:45.470Z,1003.79
2019-02-27T13:45:47.563Z,1003.82
2019-02-27T13:46:45.454Z,1003.73
2019-02-27T13:47:45.450Z,1003.77
2019-02-27T13:48:45.438Z,1003.76
2019-02-27T13:49:47.322Z,1003.79
2019-02-27T13:50:45.424Z,1003.69
2019-02-27T13:51:45.418Z,1003.72
2019-02-27T13:52:49.906Z,1003.70
2019-02-27T13:53:46.399Z,1003.65
2019-02-27T13:54:45.389Z,1003.65
2019-02-27T13:55:48.162Z,1003.63
2019-02-27T13:56:45.370Z,1003.66
2019-02-27T13:57:45.364Z,1003.66
2019-02-27T13:58:45.358Z,1003.62
2019-02-27T13:59:45.679Z,1003.65
2019-02-27T14:00:45.343Z,1003.56
2019-02-27T14:01:45.333Z,1003.59
2019-02-27T14:02:45.336Z,1003.53
2019-02-27T14:03:45.682Z,1003.50
2019-02-27T14:04:45.312Z,1003.45
2019-02-27T14:05:45.301Z,1003.46
2019-02-27T14:06:47.394Z,1003.38
2019-02-27T14:07:45.310Z,1003.44
2019-02-27T14:08:45.285Z,1003.43
2019-02-27T14:09:45.273Z,1003.41
2019-02-27T14:10:45.263Z,1003.44
2019-02-27T14:11:45.258Z,1003.33
2019-02-27T14:12:45.249Z,1003.34
2019-02-27T14:13:45.245Z,1003.29
2019-02-27T14:14:45.233Z,1003.31
2019-02-27T14:15:45.226Z,1003.29
2019-02-27T14:16:45.219Z,1003.23
2019-02-27T14:17:45.211Z,1003.22
2019-02-27T14:18:49.810Z,1003.22
2019-02-27T14:19:46.197Z,1003.18
2019-02-27T14:20:45.193Z,1003.14
2019-02-27T14:21:45.209Z,1003.10
2019-02-27T14:22:45.287Z,1003.08
2019-02-27T14:23:46.916Z,1003.04
2019-02-27T14:24:45.161Z,1003.10
2019-02-27T14:25:45.151Z,1003.04
2019-02-27T14:26:45.143Z,1003.05
2019-02-27T14:27:47.475Z,1002.96
2019-02-27T14:28:45.132Z,1003.05
2019-02-27T14:29:45.122Z,1003.01
2019-02-27T14:30:45.114Z,1002.94
2019-02-27T14:31:45.107Z,1002.94
2019-02-27T14:32:47.340Z,1002.94
2019-02-27T14:33:45.090Z,1002.94
2019-02-27T14:34:45.082Z,1002.93
2019-02-27T14:35:45.073Z,1002.95
2019-02-27T14:36:45.066Z,1002.96
2019-02-27T14:37:49.646Z,1002.91
2019-02-27T14:38:45.047Z,1002.87
2019-02-27T14:39:45.040Z,1002.89
2019-02-27T14:40:45.040Z,1002.88
2019-02-27T14:41:47.910Z,1002.80
2019-02-27T14:42:45.016Z,1002.81
2019-02-27T14:43:45.023Z,1002.85
2019-02-27T14:44:45.009Z,1002.80
2019-02-27T14:45:44.995Z,1002.75
2019-02-27T14:46:45.677Z,1002.68
2019-02-27T14:47:47.382Z,1002.65
2019-02-27T14:48:44.987Z,1002.66
2019-02-27T14:49:44.965Z,1002.73
2019-02-27T14:50:44.956Z,1002.64
2019-02-27T14:51:44.951Z,1002.63
2019-02-27T14:52:45.729Z,1002.60
2019-02-27T14:53:44.944Z,1002.60
2019-02-27T14:54:44.929Z,1002.54
2019-02-27T14:55:44.918Z,1002.56
2019-02-27T14:56:44.917Z,1002.53
2019-02-27T14:57:50.096Z,1002.53
2019-02-27T14:58:45.913Z,1002.48
2019-02-27T14:59:44.891Z,1002.54
2019-02-27T15:00:44.880Z,1002.49
2019-02-27T15:01:48.392Z,1002.45
2019-02-27T15:02:44.862Z,1002.48
2019-02-27T15:03:44.856Z,1002.48
2019-02-27T15:04:44.848Z,1002.44
2019-02-27T15:05:45.315Z,1002.48
2019-02-27T15:06:44.829Z,1002.41
2019-02-27T15:07:44.824Z,1002.41
2019-02-27T15:08:44.815Z,1002.38
2019-02-27T15:09:47.975Z,1002.37
2019-02-27T15:10:44.799Z,1002.42
2019-02-27T15:11:44.949Z,1002.31
2019-02-27T15:12:44.785Z,1002.38
2019-02-27T15:13:44.782Z,1002.31
2019-02-27T15:14:44.785Z,1002.34
2019-02-27T15:15:44.765Z,1002.36
2019-02-27T15:16:49.061Z,1002.39
2019-02-27T15:17:45.745Z,1002.31
2019-02-27T15:18:44.739Z,1002.34
2019-02-27T15:19:44.740Z,1002.32
2019-02-27T15:20:44.724Z,1002.26
2019-02-27T15:21:46.554Z,1002.34
2019-02-27T15:22:44.709Z,1002.25
2019-02-27T15:23:44.698Z,1002.22
2019-02-27T15:24:44.700Z,1002.23
2019-02-27T15:25:44.683Z,1002.25
2019-02-27T15:26:45.453Z,1002.20
2019-02-27T15:27:44.665Z,1002.21
2019-02-27T15:28:44.659Z,1002.18
2019-02-27T15:29:44.780Z,1002.15
2019-02-27T15:30:46.638Z,1002.13
2019-02-27T15:31:44.635Z,1002.15
2019-02-27T15:32:44.628Z,1002.17
2019-02-27T15:33:44.620Z,1002.17
2019-02-27T15:34:45.953Z,1002.16
2019-02-27T15:35:44.610Z,1002.15
2019-02-27T15:36:44.597Z,1002.18
2019-02-27T15:37:44.599Z,1002.14
2019-02-27T15:38:46.078Z,1002.17
2019-02-27T15:39:44.572Z,1002.11
2019-02-27T15:40:44.576Z,1002.17
2019-02-27T15:41:44.558Z,1002.12
2019-02-27T15:42:44.549Z,1002.13
2019-02-27T15:43:44.545Z,1002.12
2019-02-27T15:44:44.532Z,1002.08
2019-02-27T15:45:48.022Z,1002.08
2019-02-27T15:46:44.519Z,1002.07
2019-02-27T15:47:44.532Z,1002.07
2019-02-27T15:48:44.504Z,1002.03
2019-02-27T15:49:46.106Z,1002.10
2019-02-27T15:50:44.497Z,1002.06
2019-02-27T15:51:44.485Z,1002.05
2019-02-27T15:52:44.477Z,1002.03
2019-02-27T15:53:49.613Z,1002.01
2019-02-27T15:54:45.457Z,1002.02
2019-02-27T15:55:44.463Z,1001.94
2019-02-27T15:56:45.518Z,1001.92
2019-02-27T15:57:44.440Z,1001.95
2019-02-27T15:58:44.431Z,1001.91
2019-02-27T15:59:44.419Z,1001.91
2019-02-27T16:00:44.424Z,1001.93
2019-02-27T16:01:44.415Z,1001.87
2019-02-27T16:02:44.399Z,1001.86
2019-02-27T16:03:45.574Z,1001.82
2019-02-27T16:04:44.384Z,1001.86
2019-02-27T16:05:44.400Z,1001.81
2019-02-27T16:06:44.368Z,1001.81
2019-02-27T16:07:48.537Z,1001.83
2019-02-27T16:08:44.352Z,1001.78
2019-02-27T16:09:46.137Z,1001.76
2019-02-27T16:10:54.374Z,1001.77
2019-02-27T16:11:48.066Z,1001.72
2019-02-27T16:12:45.319Z,1001.81
2019-02-27T16:13:44.318Z,1001.74
2019-02-27T16:14:44.306Z,1001.71
2019-02-27T16:15:44.781Z,1001.69
2019-02-27T16:16:44.295Z,1001.70
2019-02-27T16:17:44.284Z,1001.73
2019-02-27T16:18:44.277Z,1001.73
2019-02-27T16:19:44.719Z,1001.74
2019-02-27T16:20:47.033Z,1001.74
2019-02-27T16:21:45.264Z,1001.71
2019-02-27T16:22:44.248Z,1001.72
2019-02-27T16:23:44.238Z,1001.75
2019-02-27T16:24:44.230Z,1001.67
2019-02-27T16:25:44.227Z,1001.67
2019-02-27T16:26:44.222Z,1001.66
2019-02-27T16:27:44.207Z,1001.61
2019-02-27T16:28:46.143Z,1001.59
2019-02-27T16:29:44.193Z,1001.57
2019-02-27T16:30:44.184Z,1001.62
2019-02-27T16:31:44.183Z,1001.61
2019-02-27T16:32:48.059Z,1001.57
2019-02-27T16:33:45.159Z,1001.61
2019-02-27T16:34:44.151Z,1001.59
2019-02-27T16:35:46.319Z,1001.64
2019-02-27T16:36:46.876Z,1001.66
2019-02-27T16:37:44.129Z,1001.59
2019-02-27T16:38:44.123Z,1001.57
2019-02-27T16:39:45.746Z,1001.56
2019-02-27T16:40:44.103Z,1001.58
2019-02-27T16:41:45.098Z,1001.52
2019-02-27T16:42:44.099Z,1001.47
2019-02-27T16:43:47.744Z,1001.47
2019-02-27T16:44:44.077Z,1001.52
2019-02-27T16:45:44.067Z,1001.53
2019-02-27T16:46:44.934Z,1001.51
2019-02-27T16:47:44.053Z,1001.49
2019-02-27T16:48:44.053Z,1001.54
2019-02-27T16:49:44.038Z,1001.48
2019-02-27T16:50:45.576Z,1001.49
2019-02-27T16:51:44.020Z,1001.45
2019-02-27T16:52:44.047Z,1001.51
2019-02-27T16:53:44.014Z,1001.42
2019-02-27T16:54:44.001Z,1001.54
2019-02-27T16:55:43.990Z,1001.49
2019-02-27T16:56:47.647Z,1001.44
2019-02-27T16:57:44.996Z,1001.49
2019-02-27T16:58:43.971Z,1001.45
2019-02-27T16:59:45.433Z,1001.47
2019-02-27T17:00:43.957Z,1001.46
2019-02-27T17:01:43.944Z,1001.45
2019-02-27T17:02:43.937Z,1001.44
2019-02-27T17:03:45.173Z,1001.40
2019-02-27T17:04:44.919Z,1001.38
2019-02-27T17:05:44.002Z,1001.39
2019-02-27T17:06:43.909Z,1001.36
2019-02-27T17:07:43.902Z,1001.37
2019-02-27T17:08:43.895Z,1001.42
2019-02-27T17:09:44.647Z,1001.43
2019-02-27T17:10:43.878Z,1001.36
2019-02-27T17:11:43.871Z,1001.41
2019-02-27T17:12:43.864Z,1001.42
2019-02-27T17:13:43.859Z,1001.47
2019-02-27T17:14:44.753Z,1001.40
2019-02-27T17:15:43.844Z,1001.42
2019-02-27T17:16:44.930Z,1001.37
2019-02-27T17:17:43.827Z,1001.37
2019-02-27T17:18:43.825Z,1001.34
2019-02-27T17:19:43.813Z,1001.40
2019-02-27T17:20:46.605Z,1001.33
2019-02-27T17:21:43.797Z,1001.39
2019-02-27T17:22:43.789Z,1001.36
2019-02-27T17:23:46.593Z,1001.36
2019-02-27T17:24:43.772Z,1001.31
2019-02-27T17:25:43.765Z,1001.38
2019-02-27T17:26:43.802Z,1001.35
2019-02-27T17:27:43.754Z,1001.38
2019-02-27T17:28:43.742Z,1001.35
2019-02-27T17:29:43.735Z,1001.30
2019-02-27T17:30:43.732Z,1001.40
2019-02-27T17:31:49.278Z,1001.39
2019-02-27T17:32:44.711Z,1001.41
2019-02-27T17:33:43.707Z,1001.36
2019-02-27T17:34:47.231Z,1001.37
2019-02-27T17:35:43.701Z,1001.31
2019-02-27T17:36:43.678Z,1001.36
2019-02-27T17:37:43.673Z,1001.34
2019-02-27T17:38:45.249Z,1001.38
2019-02-27T17:39:45.470Z,1001.35
2019-02-27T17:40:43.647Z,1001.33
2019-02-27T17:41:44.691Z,1001.31
2019-02-27T17:42:43.634Z,1001.29
2019-02-27T17:43:43.634Z,1001.31
2019-02-27T17:44:43.614Z,1001.29
2019-02-27T17:45:44.274Z,1001.29
2019-02-27T17:46:43.598Z,1001.28
2019-02-27T17:47:43.589Z,1001.27
2019-02-27T17:48:45.949Z,1001.19
2019-02-27T17:49:43.577Z,1001.18
2019-02-27T17:50:43.568Z,1001.20
2019-02-27T17:51:43.565Z,1001.27
2019-02-27T17:52:48.552Z,1001.21
2019-02-27T17:53:44.587Z,1001.25
2019-02-27T17:54:43.538Z,1001.19
2019-02-27T17:55:43.527Z,1001.19
2019-02-27T17:56:43.517Z,1001.16
2019-02-27T17:57:43.523Z,1001.14
2019-02-27T17:58:43.504Z,1001.17
2019-02-27T17:59:43.498Z,1001.12
2019-02-27T18:00:43.490Z,1001.11
2019-02-27T18:01:43.482Z,1001.12
2019-02-27T18:02:43.479Z,1001.14
2019-02-27T18:03:43.466Z,1001.14
2019-02-27T18:04:45.300Z,1001.12
2019-02-27T18:05:44.448Z,1001.05
2019-02-27T18:06:43.444Z,1001.04
2019-02-27T18:07:43.511Z,1001.05
2019-02-27T18:08:43.427Z,1001.06
2019-02-27T18:09:43.423Z,1001.00
2019-02-27T18:10:43.414Z,1000.99
2019-02-27T18:11:43.408Z,1001.01
2019-02-27T18:12:43.402Z,1001.00
2019-02-27T18:13:43.390Z,1001.01
2019-02-27T18:14:46.723Z,1000.96
2019-02-27T18:15:43.374Z,1001.01
2019-02-27T18:16:43.367Z,1000.94
2019-02-27T18:17:43.363Z,1000.90
2019-02-27T18:18:44.015Z,1000.91
2019-02-27T18:19:43.345Z,1000.91
2019-02-27T18:20:43.344Z,1000.92
2019-02-27T18:21:43.331Z,1000.83
2019-02-27T18:22:45.886Z,1000.88
2019-02-27T18:23:44.325Z,1000.86
2019-02-27T18:24:43.326Z,1000.85
2019-02-27T18:25:43.301Z,1000.79
2019-02-27T18:26:43.291Z,1000.81
2019-02-27T18:27:43.292Z,1000.78
2019-02-27T18:28:43.276Z,1000.77
2019-02-27T18:29:43.710Z,1000.78
2019-02-27T18:30:43.264Z,1000.70
2019-02-27T18:31:43.255Z,1000.70
2019-02-27T18:32:43.247Z,1000.72
2019-02-27T18:33:43.241Z,1000.78
2019-02-27T18:34:43.232Z,1000.77
2019-02-27T18:35:43.229Z,1000.71
2019-02-27T18:36:46.480Z,1000.70
2019-02-27T18:37:43.209Z,1000.72
2019-02-27T18:38:43.205Z,1000.72
2019-02-27T18:39:43.196Z,1000.67
2019-02-27T18:40:43.639Z,1000.65
2019-02-27T18:41:45.757Z,1000.65
2019-02-27T18:42:43.171Z,1000.65
2019-02-27T18:43:43.165Z,1000.69
2019-02-27T18:44:43.162Z,1000.64
2019-02-27T18:45:43.148Z,1000.71
2019-02-27T18:46:43.139Z,1000.63
2019-02-27T18:47:43.134Z,1000.64
2019-02-27T18:48:43.861Z,1000.63
2019-02-27T18:49:43.116Z,1000.56
2019-02-27T18:50:43.112Z,1000.57
2019-02-27T18:51:43.100Z,1000.54
2019-02-27T18:52:43.093Z,1000.60
2019-02-27T18:53:47.352Z,1000.57
2019-02-27T18:54:44.079Z,1000.57
2019-02-27T18:55:44.074Z,1000.53
2019-02-27T18:56:43.103Z,1000.59
2019-02-27T18:57:45.992Z,1000.59
2019-02-27T18:58:43.050Z,1000.57
2019-02-27T18:59:43.043Z,1000.51
2019-02-27T19:00:43.034Z,1000.53
2019-02-27T19:01:45.208Z,1000.54
2019-02-27T19:02:43.019Z,1000.54
2019-02-27T19:03:43.014Z,1000.47
2019-02-27T19:04:43.002Z,1000.49
2019-02-27T19:05:43.003Z,1000.57
2019-02-27T19:06:43.127Z,1000.55
2019-02-27T19:07:42.981Z,1000.51
2019-02-27T19:08:42.976Z,1000.54
2019-02-27T19:09:42.970Z,1000.51